Time;durP1;ratioP1;P1;durP2;ratioP2;P2;SDS_P1;SDS_P2;PMS_P1;PMS_P2;Temp;Humidity;BMP_temperature;BMP_pressure;BME280_temperature;BME280_humidity;BME280_pressure;Samples;Min_cycle;Max_cycle;Signal;HPM_P1;HPM_P2
2022/02/16 00:00:12;;;;;;;0.40;0.40;;;19.20;47.40;;;;;;6146806;28;20135;-67
2022/02/16 00:03:13;;;;;;;0.52;0.50;;;19.20;47.50;;;;;;6146399;28;20438;-67
2022/02/16 00:06:13;;;;;;;0.30;0.30;;;19.20;47.60;;;;;;6151009;28;20042;-67
2022/02/16 00:09:14;;;;;;;0.80;0.50;;;19.20;47.60;;;;;;6170309;28;20512;-67
2022/02/16 00:12:14;;;;;;;0.73;0.43;;;19.20;47.50;;;;;;6170291;28;20455;-67
2022/02/16 00:15:15;;;;;;;0.50;0.40;;;19.20;47.50;;;;;;6170415;28;20093;-67
2022/02/16 00:18:16;;;;;;;0.40;0.40;;;19.20;47.70;;;;;;6169919;28;20081;-67
2022/02/16 00:21:16;;;;;;;0.50;0.45;;;19.20;47.70;;;;;;6170269;28;20031;-67
2022/02/16 00:24:17;;;;;;;0.45;0.30;;;19.20;47.70;;;;;;6169617;28;20023;-67
2022/02/16 00:27:18;;;;;;;0.50;0.40;;;19.20;47.60;;;;;;6170269;28;20023;-67
2022/02/16 00:30:18;;;;;;;3.28;0.63;;;19.20;47.60;;;;;;6169918;28;20031;-66
2022/02/16 00:33:19;;;;;;;1.00;0.50;;;19.20;47.60;;;;;;6158202;28;20035;-67
2022/02/16 00:36:20;;;;;;;1.33;0.60;;;19.20;47.60;;;;;;6145726;28;20106;-67
2022/02/16 00:39:20;;;;;;;0.57;0.47;;;19.20;47.50;;;;;;6146259;28;20135;-67
2022/02/16 00:42:21;;;;;;;0.75;0.50;;;19.20;47.60;;;;;;6157960;28;20039;-67
2022/02/16 00:45:21;;;;;;;0.93;0.40;;;19.20;47.60;;;;;;6170108;28;20039;-67
2022/02/16 00:48:22;;;;;;;0.20;0.20;;;19.20;47.80;;;;;;6169918;28;20022;-67
2022/02/16 00:51:22;;;;;;;0.90;0.40;;;19.20;47.60;;;;;;6169908;28;20035;-67
2022/02/16 00:54:23;;;;;;;0.40;0.40;;;19.20;47.80;;;;;;6169243;28;20067;-67
2022/02/16 00:57:23;;;;;;;0.60;0.50;;;19.20;47.50;;;;;;6169942;28;20022;-67
2022/02/16 01:00:24;;;;;;;0.63;0.40;;;19.20;47.80;;;;;;6169787;28;20039;-67
2022/02/16 01:03:25;;;;;;;0.20;0.20;;;19.20;47.80;;;;;;6170080;28;20462;-67
2022/02/16 01:06:25;;;;;;;0.40;0.40;;;19.20;47.70;;;;;;6169159;28;20474;-67
2022/02/16 01:09:26;;;;;;;0.30;0.30;;;19.20;47.80;;;;;;6169690;28;20042;-67
2022/02/16 01:12:27;;;;;;;0.50;0.40;;;19.20;47.80;;;;;;6172577;28;20031;-67
2022/02/16 01:15:29;;;;;;;0.55;0.32;;;19.20;47.80;;;;;;6174163;28;20130;-67
2022/02/16 01:18:29;;;;;;;0.30;0.30;;;19.20;47.80;;;;;;6174298;28;20100;-67
2022/02/16 01:21:30;;;;;;;0.88;0.52;;;19.20;47.80;;;;;;6174047;28;20030;-67
2022/02/16 01:24:31;;;;;;;0.50;0.40;;;19.20;47.50;;;;;;6174119;28;20030;-67
2022/02/16 01:27:32;;;;;;;0.65;0.50;;;19.20;47.80;;;;;;6173978;28;20023;-67
2022/02/16 01:30:33;;;;;;;0.60;0.40;;;19.20;47.60;;;;;;6174234;28;20034;-67
2022/02/16 01:33:34;;;;;;;0.50;0.40;;;19.20;47.70;;;;;;6160006;28;20094;-67
2022/02/16 01:36:34;;;;;;;0.40;0.40;;;19.20;47.80;;;;;;6150123;28;20058;-67
2022/02/16 01:39:35;;;;;;;1.02;0.30;;;19.20;47.80;;;;;;6149489;28;20347;-67
2022/02/16 01:42:35;;;;;;;0.80;0.43;;;19.20;47.80;;;;;;6149922;28;20035;-67
2022/02/16 01:45:37;;;;;;;0.30;0.30;;;19.20;47.80;;;;;;6149668;29;20031;-67
2022/02/16 01:48:38;;;;;;;0.82;0.45;;;19.20;47.80;;;;;;6149900;29;20524;-67
2022/02/16 01:51:38;;;;;;;0.50;0.43;;;19.20;47.80;;;;;;6149577;29;20031;-67
2022/02/16 01:54:39;;;;;;;0.45;0.38;;;19.20;47.70;;;;;;6148846;29;20066;-67
2022/02/16 01:57:40;;;;;;;0.55;0.50;;;19.20;47.80;;;;;;6149691;29;20042;-67
2022/02/16 02:00:40;;;;;;;0.40;0.32;;;19.20;47.80;;;;;;6152013;28;20078;-67
2022/02/16 02:03:41;;;;;;;0.85;0.40;;;19.20;47.80;;;;;;6173136;28;20049;-67
2022/02/16 02:06:42;;;;;;;0.30;0.30;;;19.20;47.80;;;;;;6173211;28;20035;-67
2022/02/16 02:09:42;;;;;;;0.40;0.30;;;19.20;47.80;;;;;;6172927;28;20089;-67
2022/02/16 02:12:53;;;;;;;0.57;0.50;;;19.20;47.80;;;;;;6172900;28;20042;-67
2022/02/16 02:15:53;;;;;;;0.40;0.30;;;19.20;47.80;;;;;;6173164;28;20462;-67
2022/02/16 02:18:54;;;;;;;0.40;0.30;;;19.20;47.80;;;;;;6173579;28;20081;-67
2022/02/16 02:21:55;;;;;;;0.30;0.30;;;19.20;47.80;;;;;;6156736;28;20106;-67
2022/02/16 02:24:55;;;;;;;0.40;0.32;;;19.20;47.80;;;;;;6148002;28;20035;-67
2022/02/16 02:27:56;;;;;;;1.10;0.38;;;19.20;47.80;;;;;;6148810;28;20513;-67
2022/02/16 02:30:56;;;;;;;0.40;0.40;;;19.20;47.80;;;;;;6148611;28;20034;-67
2022/02/16 02:33:58;;;;;;;0.40;0.30;;;19.20;47.80;;;;;;6164603;28;20161;-67
2022/02/16 02:36:59;;;;;;;0.50;0.30;;;19.20;47.80;;;;;;6172593;28;20113;-67
2022/02/16 02:39:59;;;;;;;0.50;0.40;;;19.20;47.80;;;;;;6172068;28;20367;-67
2022/02/16 02:43:00;;;;;;;0.82;0.47;;;19.20;47.90;;;;;;6155341;28;20039;-67
2022/02/16 02:46:02;;;;;;;0.30;0.30;;;19.20;47.80;;;;;;6148210;29;20431;-67
2022/02/16 02:49:02;;;;;;;0.50;0.38;;;19.20;47.90;;;;;;6148383;29;20041;-68
2022/02/16 02:52:03;;;;;;;0.25;0.20;;;19.20;47.80;;;;;;6147743;29;20032;-67
2022/02/16 02:55:06;;;;;;;0.30;0.30;;;19.20;47.80;;;;;;6147889;29;20114;-67
2022/02/16 02:58:06;;;;;;;0.77;0.45;;;19.20;47.80;;;;;;6148150;29;20107;-67
2022/02/16 03:01:07;;;;;;;0.70;0.30;;;19.20;47.80;;;;;;6148029;29;20045;-67
2022/02/16 03:04:07;;;;;;;0.47;0.40;;;19.20;47.80;;;;;;6147721;29;20450;-67
2022/02/16 03:07:08;;;;;;;0.20;0.20;;;19.20;47.80;;;;;;6159792;28;20031;-67
2022/02/16 03:10:09;;;;;;;0.70;0.30;;;19.20;47.80;;;;;;6171646;28;20023;-67
2022/02/16 03:13:19;;;;;;;0.70;0.50;;;19.20;47.80;;;;;;6171509;28;20117;-67
2022/02/16 03:16:19;;;;;;;0.57;0.40;;;19.20;47.80;;;;;;6171670;28;20141;-67
2022/02/16 03:19:19;;;;;;;0.60;0.40;;;19.20;47.80;;;;;;6171771;28;20034;-67
2022/02/16 03:22:20;;;;;;;1.02;0.30;;;19.20;47.90;;;;;;6171329;28;20023;-67
2022/02/16 03:25:21;;;;;;;0.38;0.32;;;19.20;47.80;;;;;;6171081;28;20077;-66
2022/02/16 03:28:21;;;;;;;0.50;0.47;;;19.20;47.80;;;;;;6171839;28;20359;-67
2022/02/16 03:31:22;;;;;;;0.70;0.40;;;19.20;47.90;;;;;;6171248;28;20055;-67
2022/02/16 03:34:22;;;;;;;0.90;0.30;;;19.20;47.80;;;;;;6150405;28;20043;-67
2022/02/16 03:37:23;;;;;;;0.50;0.40;;;19.20;47.90;;;;;;6147266;28;20053;-67
2022/02/16 03:40:24;;;;;;;0.63;0.30;;;19.20;47.90;;;;;;6147414;28;20114;-67
2022/02/16 03:43:24;;;;;;;0.43;0.30;;;19.20;47.90;;;;;;6146618;28;20512;-67
2022/02/16 03:46:26;;;;;;;0.52;0.40;;;19.20;47.90;;;;;;6146986;29;20030;-67
2022/02/16 03:49:27;;;;;;;1.27;0.40;;;19.20;47.90;;;;;;6147139;29;20058;-67
2022/02/16 03:52:27;;;;;;;0.60;0.40;;;19.20;47.90;;;;;;6146828;29;20031;-67
2022/02/16 03:55:28;;;;;;;0.35;0.30;;;19.20;47.90;;;;;;6146223;29;20130;-67
2022/02/16 03:58:28;;;;;;;2.13;0.57;;;19.20;47.90;;;;;;6146851;29;20478;-67
2022/02/16 04:01:29;;;;;;;0.30;0.30;;;19.20;47.80;;;;;;6146645;29;20053;-67
2022/02/16 04:04:30;;;;;;;0.68;0.40;;;19.20;47.90;;;;;;6146699;29;20505;-67
2022/02/16 04:07:31;;;;;;;0.55;0.30;;;19.20;47.90;;;;;;6161411;28;20034;-67
2022/02/16 04:10:31;;;;;;;0.43;0.30;;;19.20;47.90;;;;;;6169911;28;20039;-67
2022/02/16 04:13:32;;;;;;;0.52;0.30;;;19.20;47.80;;;;;;6170411;28;20122;-67
2022/02/16 04:16:32;;;;;;;0.35;0.30;;;19.20;47.90;;;;;;6169978;28;20034;-67
2022/02/16 04:19:33;;;;;;;0.30;0.30;;;19.20;47.90;;;;;;6169901;28;20113;-67
2022/02/16 04:22:38;;;;;;;0.35;0.30;;;19.20;47.80;;;;;;6170134;28;20344;-67
2022/02/16 04:25:39;;;;;;;0.60;0.47;;;19.20;47.90;;;;;;6170206;28;20045;-67
2022/02/16 04:28:39;;;;;;;0.65;0.38;;;19.20;47.80;;;;;;6170483;28;20023;-67
2022/02/16 04:31:40;;;;;;;1.17;0.40;;;19.10;47.80;;;;;;6170289;28;20027;-66
2022/02/16 04:34:40;;;;;;;0.65;0.40;;;19.10;47.80;;;;;;6147680;28;20051;-66
2022/02/16 04:37:41;;;;;;;0.35;0.28;;;19.20;47.80;;;;;;6146221;28;20395;-67
2022/02/16 04:40:41;;;;;;;0.82;0.30;;;19.20;47.80;;;;;;6146232;28;20027;-67
2022/02/16 04:43:42;;;;;;;0.57;0.30;;;19.20;47.90;;;;;;6145881;28;20094;-67
2022/02/16 04:46:43;;;;;;;0.73;0.30;;;19.20;47.80;;;;;;6147234;28;20145;-67
2022/02/16 04:49:44;;;;;;;0.52;0.40;;;19.20;47.80;;;;;;6173378;28;20038;-67
2022/02/16 04:52:44;;;;;;;0.55;0.30;;;19.20;47.80;;;;;;6174847;28;20463;-67
2022/02/16 04:55:45;;;;;;;0.60;0.32;;;19.20;47.90;;;;;;6174099;28;20054;-67
2022/02/16 04:58:45;;;;;;;0.30;0.20;;;19.10;47.60;;;;;;6175292;28;20485;-66
2022/02/16 05:01:46;;;;;;;0.60;0.40;;;19.10;47.80;;;;;;6174857;28;20034;-67
2022/02/16 05:04:46;;;;;;;0.70;0.40;;;19.10;47.80;;;;;;6174530;28;20089;-67
2022/02/16 05:07:47;;;;;;;0.73;0.40;;;19.20;47.80;;;;;;6174588;28;20605;-67
2022/02/16 05:10:48;;;;;;;0.40;0.32;;;19.10;47.80;;;;;;6174295;28;20035;-67
2022/02/16 05:13:48;;;;;;;0.47;0.40;;;19.10;47.70;;;;;;6174023;28;20497;-67
2022/02/16 05:16:49;;;;;;;0.20;0.20;;;19.10;47.80;;;;;;6174629;28;20022;-67
2022/02/16 05:19:49;;;;;;;0.30;0.30;;;19.10;47.80;;;;;;6173996;28;20581;-67
2022/02/16 05:22:50;;;;;;;0.55;0.25;;;19.20;47.80;;;;;;6150930;28;20023;-67
2022/02/16 05:25:53;;;;;;;0.30;0.30;;;19.20;47.80;;;;;;6150475;28;20078;-67
2022/02/16 05:28:53;;;;;;;0.30;0.30;;;19.20;47.80;;;;;;6148718;29;20106;-67
2022/02/16 05:31:54;;;;;;;0.40;0.30;;;19.20;47.80;;;;;;6150399;28;20110;-66
2022/02/16 05:34:54;;;;;;;0.73;0.30;;;19.20;47.80;;;;;;6173672;28;20406;-67
2022/02/16 05:37:55;;;;;;;0.45;0.30;;;19.20;47.80;;;;;;6173627;28;20027;-67
2022/02/16 05:40:55;;;;;;;0.30;0.30;;;19.20;47.80;;;;;;6173776;28;20055;-66
2022/02/16 05:43:56;;;;;;;0.63;0.40;;;19.20;47.80;;;;;;6173546;28;20023;-67
2022/02/16 05:46:56;;;;;;;0.57;0.30;;;19.20;47.80;;;;;;6173686;28;20037;-66
2022/02/16 05:49:57;;;;;;;1.20;0.28;;;19.20;47.80;;;;;;6173178;28;20454;-67
2022/02/16 05:52:58;;;;;;;0.75;0.30;;;19.20;48.40;;;;;;6173408;28;20039;-67
2022/02/16 05:55:58;;;;;;;0.20;0.10;;;19.20;47.80;;;;;;6173067;28;20061;-67
2022/02/16 05:58:59;;;;;;;0.63;0.40;;;19.20;47.80;;;;;;6173176;28;20038;-67
2022/02/16 06:02:03;;;;;;;0.75;0.40;;;19.20;47.80;;;;;;6161905;28;20098;-67
2022/02/16 06:05:04;;;;;;;0.30;0.25;;;19.20;47.80;;;;;;6149261;28;20090;-67
2022/02/16 06:08:04;;;;;;;0.50;0.30;;;19.20;47.80;;;;;;6169061;28;20082;-66
2022/02/16 06:11:05;;;;;;;1.10;0.40;;;19.20;47.80;;;;;;6173052;28;20023;-67
2022/02/16 06:14:07;;;;;;;0.80;0.30;;;19.20;47.80;;;;;;6172950;28;20368;-67
2022/02/16 06:17:08;;;;;;;0.65;0.30;;;19.20;47.80;;;;;;6172752;28;20034;-67
2022/02/16 06:20:09;;;;;;;0.70;0.40;;;19.20;47.80;;;;;;6172927;28;20054;-66
2022/02/16 06:23:09;;;;;;;0.82;0.30;;;19.20;47.80;;;;;;6172741;28;20170;-67
2022/02/16 06:26:10;;;;;;;0.45;0.30;;;19.20;47.80;;;;;;6172910;28;20030;-67
2022/02/16 06:29:10;;;;;;;0.45;0.30;;;19.20;47.80;;;;;;6172481;28;20450;-67
2022/02/16 06:32:11;;;;;;;0.35;0.22;;;19.20;47.80;;;;;;6169748;28;20501;-67
2022/02/16 06:35:12;;;;;;;1.08;0.30;;;19.20;47.80;;;;;;6159800;28;20047;-66
2022/02/16 06:38:13;;;;;;;0.98;0.40;;;19.20;47.80;;;;;;6164478;28;20394;-67
2022/02/16 06:41:14;;;;;;;0.40;0.30;;;19.20;47.80;;;;;;6170471;28;20272;-67
2022/02/16 06:44:14;;;;;;;2.33;0.52;;;19.20;47.80;;;;;;6171254;28;20019;-67
2022/02/16 06:47:15;;;;;;;2.10;0.40;;;19.20;47.60;;;;;;6170873;28;20023;-67
2022/02/16 06:50:16;;;;;;;1.23;0.32;;;19.20;47.50;;;;;;6172360;28;20064;-67
2022/02/16 06:53:16;;;;;;;2.05;0.40;;;19.20;47.50;;;;;;6171158;28;20066;-67
2022/02/16 06:56:17;;;;;;;2.72;0.40;;;19.20;47.60;;;;;;6170793;28;20058;-67
2022/02/16 06:59:18;;;;;;;2.03;0.40;;;19.20;47.60;;;;;;6169745;28;20531;-67
2022/02/16 07:02:19;;;;;;;2.28;0.55;;;19.20;47.60;;;;;;6168905;28;20030;-67
2022/02/16 07:05:19;;;;;;;0.70;0.50;;;19.20;47.60;;;;;;6172978;28;20042;-67
2022/02/16 07:08:20;;;;;;;3.90;0.50;;;19.20;47.60;;;;;;6173381;28;20034;-66
2022/02/16 07:11:20;;;;;;;1.77;0.80;;;19.20;47.70;;;;;;6172364;28;20034;-67
2022/02/16 07:14:22;;;;;;;0.35;0.30;;;19.20;47.70;;;;;;6172986;28;20034;-67
2022/02/16 07:17:23;;;;;;;3.15;0.63;;;19.20;47.70;;;;;;6172634;28;20023;-67
2022/02/16 07:20:24;;;;;;;1.45;0.50;;;19.20;47.80;;;;;;6173388;28;20217;-69
2022/02/16 07:23:24;;;;;;;0.77;0.52;;;19.20;47.80;;;;;;6172406;28;20042;-67
2022/02/16 07:26:25;;;;;;;1.10;0.50;;;19.20;47.80;;;;;;6172815;28;20035;-67
2022/02/16 07:29:28;;;;;;;0.82;0.52;;;19.20;47.80;;;;;;6172786;28;20035;-67
2022/02/16 07:32:29;;;;;;;0.90;0.50;;;19.20;47.80;;;;;;6171918;28;20297;-67
2022/02/16 07:35:29;;;;;;;0.75;0.40;;;19.20;47.90;;;;;;6166915;28;20062;-66
2022/02/16 07:38:30;;;;;;;0.82;0.50;;;19.20;47.80;;;;;;6168306;28;20027;-67
2022/02/16 07:41:31;;;;;;;1.08;0.40;;;19.20;47.80;;;;;;6161862;28;20034;-67
2022/02/16 07:44:32;;;;;;;1.48;0.40;;;19.20;47.90;;;;;;6172160;28;20031;-67
2022/02/16 07:47:32;;;;;;;0.50;0.38;;;19.20;47.90;;;;;;6192242;28;20120;-66
2022/02/16 07:50:33;;;;;;;1.40;0.38;;;19.20;47.80;;;;;;6195872;28;20026;-67
2022/02/16 07:53:37;;;;;;;0.63;0.30;;;19.20;47.90;;;;;;6194425;28;20440;-66
2022/02/16 07:56:38;;;;;;;2.05;0.60;;;19.20;47.90;;;;;;6195882;28;20046;-67
2022/02/16 07:59:39;;;;;;;0.55;0.40;;;19.20;47.90;;;;;;6195924;28;20026;-67
2022/02/16 08:02:39;;;;;;;3.67;0.43;;;19.20;47.90;;;;;;6195601;28;20108;-67
2022/02/16 08:05:41;;;;;;;1.23;0.60;;;19.20;47.90;;;;;;6195357;28;20053;-67
2022/02/16 08:08:42;;;;;;;3.03;0.57;;;19.20;48.00;;;;;;6170171;28;20026;-67
2022/02/16 08:11:44;;;;;;;1.17;0.43;;;19.20;48.00;;;;;;6171765;28;20217;-67
2022/02/16 08:14:45;;;;;;;0.70;0.47;;;19.20;47.90;;;;;;6171134;28;20074;-67
2022/02/16 08:17:45;;;;;;;1.88;0.90;;;19.20;47.90;;;;;;6171008;28;20030;-67
2022/02/16 08:20:46;;;;;;;0.32;0.30;;;19.20;48.00;;;;;;6170980;28;20037;-67
2022/02/16 08:23:46;;;;;;;0.60;0.43;;;19.20;47.90;;;;;;6152892;28;20023;-67
2022/02/16 08:26:47;;;;;;;2.22;0.40;;;19.20;47.90;;;;;;6146845;28;20446;-67
2022/02/16 08:29:47;;;;;;;0.60;0.40;;;19.20;47.90;;;;;;6149831;28;20047;-67
2022/02/16 08:32:49;;;;;;;1.27;0.40;;;19.20;48.00;;;;;;6170936;28;20114;-67
2022/02/16 08:35:49;;;;;;;0.55;0.40;;;19.20;48.00;;;;;;6170218;28;20240;-67
2022/02/16 08:38:50;;;;;;;1.27;0.40;;;19.20;47.90;;;;;;6171587;28;20062;-67
2022/02/16 08:41:51;;;;;;;0.63;0.40;;;19.20;48.00;;;;;;6170827;28;20019;-66
2022/02/16 08:44:52;;;;;;;3.05;0.38;;;19.30;48.00;;;;;;6170701;28;20023;-67
2022/02/16 08:47:52;;;;;;;1.25;0.55;;;19.30;48.00;;;;;;6170302;28;20027;-67
2022/02/16 08:50:54;;;;;;;0.85;0.60;;;19.30;48.00;;;;;;6171081;28;20035;-66
2022/02/16 08:53:55;;;;;;;4.03;0.40;;;19.30;48.00;;;;;;6171129;28;20133;-67
2022/02/16 08:56:57;;;;;;;0.93;0.30;;;19.30;48.00;;;;;;6169801;28;20112;-67
2022/02/16 08:59:58;;;;;;;0.93;0.28;;;19.30;48.00;;;;;;6171058;28;20058;-67
2022/02/16 09:02:58;;;;;;;0.63;0.30;;;19.30;48.10;;;;;;6170626;28;20045;-67
2022/02/16 09:05:59;;;;;;;0.77;0.50;;;19.20;48.00;;;;;;6170423;28;20030;-67
2022/02/16 09:09:00;;;;;;;1.88;0.50;;;19.30;48.00;;;;;;6170698;28;20034;-66
2022/02/16 09:12:01;;;;;;;0.63;0.38;;;19.30;48.10;;;;;;6170650;28;20046;-68
2022/02/16 09:15:02;;;;;;;1.08;0.30;;;19.20;48.00;;;;;;6170239;28;20043;-68
2022/02/16 09:18:05;;;;;;;3.72;0.50;;;19.20;48.10;;;;;;6170430;28;20109;-67
2022/02/16 09:21:06;;;;;;;0.32;0.30;;;19.20;48.00;;;;;;6170474;28;20037;-67
2022/02/16 09:24:07;;;;;;;2.25;0.40;;;19.20;48.00;;;;;;6170692;28;20425;-68
2022/02/16 09:27:07;;;;;;;1.65;0.40;;;19.20;48.00;;;;;;6170029;28;20038;-68
2022/02/16 09:30:10;;;;;;;1.95;0.40;;;19.20;48.00;;;;;;6170082;28;20374;-68
2022/02/16 09:33:10;;;;;;;3.53;0.43;;;19.20;48.00;;;;;;6171881;28;20034;-68
2022/02/16 09:36:11;;;;;;;1.88;0.50;;;19.20;48.10;;;;;;6174498;28;20054;-68
2022/02/16 09:39:12;;;;;;;1.45;0.47;;;19.20;48.10;;;;;;6174881;28;20037;-67
2022/02/16 09:42:12;;;;;;;0.20;0.20;;;19.20;48.10;;;;;;6174418;28;20035;-68
2022/02/16 09:45:14;;;;;;;2.38;0.32;;;19.20;48.00;;;;;;6174854;28;20030;-67
2022/02/16 09:48:15;;;;;;;0.47;0.30;;;19.20;48.10;;;;;;6154575;28;20031;-68
2022/02/16 09:51:16;;;;;;;0.25;0.20;;;19.20;48.00;;;;;;6150933;28;20027;-67
2022/02/16 09:54:16;;;;;;;0.28;0.28;;;19.20;48.10;;;;;;6163608;28;20375;-67
2022/02/16 09:57:18;;;;;;;0.82;0.40;;;19.20;48.00;;;;;;6173985;28;20486;-67
2022/02/16 10:00:19;;;;;;;0.57;0.20;;;19.30;48.10;;;;;;6174287;28;20122;-67
2022/02/16 10:03:19;;;;;;;0.98;0.50;;;19.20;48.10;;;;;;6174388;28;20403;-67
2022/02/16 10:06:38;;;;;;;2.63;0.50;;;19.20;48.00;;;;;;6173734;28;20037;-67
2022/02/16 10:09:38;;;;;;;1.70;0.50;;;19.30;48.10;;;;;;6174517;28;20049;-68
2022/02/16 10:12:39;;;;;;;0.60;0.43;;;19.30;48.10;;;;;;6174264;28;20035;-68
2022/02/16 10:15:43;;;;;;;3.55;0.40;;;19.20;48.10;;;;;;6173794;28;20596;-67
2022/02/16 10:19:01;;;;;;;2.40;0.50;;;19.30;48.20;;;;;;6172542;28;20022;-67
2022/02/16 10:22:09;;;;;;;4.38;0.75;;;19.20;48.10;;;;;;6173045;28;20385;-67
2022/02/16 10:25:21;;;;;;;3.17;0.57;;;19.30;48.20;;;;;;6173588;28;20386;-68
2022/02/16 10:28:23;;;;;;;0.70;0.40;;;19.30;48.20;;;;;;6174017;28;20034;-65
2022/02/16 10:31:24;;;;;;;2.30;0.55;;;19.30;48.20;;;;;;6173651;28;20401;-68
2022/02/16 10:34:48;;;;;;;3.80;0.40;;;19.30;48.20;;;;;;6173022;28;20034;-67
2022/02/16 10:37:49;;;;;;;3.70;0.40;;;19.30;48.30;;;;;;6148939;28;20020;-66
2022/02/16 10:41:07;;;;;;;4.03;0.50;;;19.30;48.30;;;;;;6150145;28;20556;-67
2022/02/16 10:44:22;;;;;;;2.47;0.40;;;19.20;48.00;;;;;;6148337;28;20094;-68
2022/02/16 10:47:23;;;;;;;5.25;0.65;;;19.20;47.60;;;;;;6148553;28;20502;-67
2022/02/16 10:50:26;;;;;;;2.65;0.85;;;19.20;46.90;;;;;;6149717;28;20058;-67
2022/02/16 10:53:29;;;;;;;5.68;0.75;;;19.20;47.10;;;;;;6149033;28;20042;-67
2022/02/16 10:56:30;;;;;;;1.83;0.65;;;19.20;46.90;;;;;;6148478;28;20062;-67
2022/02/16 10:59:32;;;;;;;3.97;0.90;;;19.20;46.60;;;;;;6149535;28;20031;-67
2022/02/16 11:02:34;;;;;;;2.90;1.33;;;19.10;46.30;;;;;;6150150;28;20024;-66
2022/02/16 11:05:45;;;;;;;4.05;1.35;;;19.20;46.00;;;;;;6148936;28;20058;-67
2022/02/16 11:08:49;;;;;;;2.15;0.98;;;19.20;46.30;;;;;;6148989;28;20039;-67
2022/02/16 11:11:54;;;;;;;2.15;0.85;;;19.20;46.60;;;;;;6149510;28;20050;-67
2022/02/16 11:14:54;;;;;;;4.95;0.90;;;19.20;46.80;;;;;;6149047;28;20054;-68
2022/02/16 11:17:57;;;;;;;2.45;0.70;;;19.20;46.90;;;;;;6149436;28;20027;-68
2022/02/16 11:21:07;;;;;;;1.92;0.75;;;19.20;47.00;;;;;;6149146;28;20106;-67
2022/02/16 11:24:07;;;;;;;2.42;0.73;;;19.20;47.10;;;;;;6149238;28;20184;-68
2022/02/16 11:27:20;;;;;;;1.60;0.95;;;19.20;47.10;;;;;;6148057;29;20061;-67
2022/02/16 11:30:36;;;;;;;1.55;0.68;;;19.20;47.10;;;;;;6155441;28;20062;-67
2022/02/16 11:33:37;;;;;;;0.80;0.60;;;19.20;47.10;;;;;;6171852;28;20035;-67
2022/02/16 11:36:58;;;;;;;1.23;0.70;;;19.20;47.10;;;;;;6172987;28;20037;-68
2022/02/16 11:40:00;;;;;;;2.13;0.50;;;19.20;47.00;;;;;;6172772;28;20027;-68
2022/02/16 11:43:00;;;;;;;1.70;0.75;;;19.20;47.10;;;;;;6172412;28;20062;-68
2022/02/16 11:46:03;;;;;;;4.95;1.00;;;19.20;47.00;;;;;;6172754;28;20046;-67
2022/02/16 11:49:05;;;;;;;1.80;0.70;;;19.20;47.00;;;;;;6172972;28;20031;-67
2022/02/16 11:52:35;;;;;;;1.88;0.60;;;19.20;47.00;;;;;;6172747;28;20031;-67
2022/02/16 11:55:44;;;;;;;1.00;0.73;;;19.20;47.10;;;;;;6171865;28;20133;-68
2022/02/16 11:59:04;;;;;;;4.68;0.50;;;19.20;47.10;;;;;;6172351;28;20030;-67
2022/02/16 12:02:08;;;;;;;2.15;0.73;;;19.20;47.20;;;;;;6172719;28;20434;-67
2022/02/16 12:05:09;;;;;;;0.70;0.60;;;19.20;47.10;;;;;;6172440;28;20023;-67
2022/02/16 12:08:37;;;;;;;1.42;0.77;;;19.20;47.30;;;;;;6172399;28;20046;-67
2022/02/16 12:11:38;;;;;;;1.25;0.60;;;19.20;47.20;;;;;;6172287;28;20073;-67
2022/02/16 12:14:41;;;;;;;2.10;0.50;;;19.20;47.20;;;;;;6171849;28;20035;-68
2022/02/16 12:17:42;;;;;;;3.17;0.60;;;19.20;47.20;;;;;;6172401;28;20023;-67
2022/02/16 12:20:48;;;;;;;2.65;0.50;;;19.20;47.30;;;;;;6172168;28;20105;-68
2022/02/16 12:23:52;;;;;;;0.77;0.50;;;19.20;47.30;;;;;;6172055;28;20031;-67
2022/02/16 12:26:57;;;;;;;0.73;0.57;;;19.20;47.30;;;;;;6171962;28;20085;-68
2022/02/16 12:30:02;;;;;;;1.00;0.60;;;19.20;47.30;;;;;;6172177;28;20030;-67
2022/02/16 12:33:16;;;;;;;1.23;0.40;;;19.20;47.30;;;;;;6162426;28;20042;-67
2022/02/16 12:36:17;;;;;;;0.77;0.50;;;19.20;47.30;;;;;;6148075;28;20030;-67
2022/02/16 12:39:18;;;;;;;0.88;0.55;;;19.20;47.30;;;;;;6148060;28;20275;-67
2022/02/16 12:42:19;;;;;;;1.50;0.43;;;19.20;47.40;;;;;;6159583;28;20093;-67
2022/02/16 12:45:24;;;;;;;1.00;0.50;;;19.20;47.40;;;;;;6171906;28;20114;-67
2022/02/16 12:48:25;;;;;;;1.00;0.52;;;19.20;47.40;;;;;;6171748;28;20034;-67
2022/02/16 12:51:31;;;;;;;0.52;0.40;;;19.20;47.40;;;;;;6171976;28;20054;-67
2022/02/16 12:54:34;;;;;;;1.52;0.70;;;19.20;47.40;;;;;;6171381;28;20051;-67
2022/02/16 12:57:37;;;;;;;0.55;0.50;;;19.20;47.40;;;;;;6171875;28;20023;-68
2022/02/16 13:00:47;;;;;;;0.68;0.40;;;19.20;47.40;;;;;;6171434;28;20030;-67
2022/02/16 13:03:47;;;;;;;0.47;0.30;;;19.20;47.40;;;;;;6171819;28;20031;-68
2022/02/16 13:06:50;;;;;;;0.93;0.35;;;19.20;47.50;;;;;;6171564;28;20034;-67
2022/02/16 13:09:52;;;;;;;1.38;0.50;;;19.20;47.50;;;;;;6176898;28;20114;-66
2022/02/16 13:12:52;;;;;;;0.75;0.40;;;19.20;47.50;;;;;;6176493;28;20233;-68
2022/02/16 13:15:54;;;;;;;1.02;0.40;;;19.20;47.40;;;;;;6176474;28;20030;-67
2022/02/16 13:18:59;;;;;;;0.38;0.38;;;19.20;47.50;;;;;;6176894;28;20038;-68
2022/02/16 13:22:02;;;;;;;0.75;0.47;;;19.20;47.50;;;;;;6176120;28;20027;-67
2022/02/16 13:25:04;;;;;;;0.52;0.40;;;19.20;47.50;;;;;;6176174;28;20027;-68
2022/02/16 13:28:10;;;;;;;0.65;0.38;;;19.20;47.50;;;;;;6176368;28;20030;-68
2022/02/16 13:31:19;;;;;;;0.40;0.40;;;19.20;47.70;;;;;;6175915;28;20057;-67
2022/02/16 13:34:20;;;;;;;0.55;0.38;;;19.20;47.50;;;;;;6155628;28;20035;-68
2022/02/16 13:37:20;;;;;;;0.85;0.50;;;19.20;47.50;;;;;;6152240;28;20039;-68
2022/02/16 13:40:21;;;;;;;0.70;0.50;;;19.20;47.50;;;;;;6151969;28;20038;-67
2022/02/16 13:43:25;;;;;;;0.40;0.40;;;19.20;47.60;;;;;;6151697;28;20031;-67
2022/02/16 13:46:27;;;;;;;0.52;0.32;;;19.20;47.50;;;;;;6151915;29;20043;-68
2022/02/16 13:49:28;;;;;;;0.73;0.40;;;19.20;47.50;;;;;;6151414;29;20039;-67
2022/02/16 13:52:34;;;;;;;0.50;0.40;;;19.20;47.50;;;;;;6151762;29;20034;-67
2022/02/16 13:55:48;;;;;;;1.33;0.43;;;19.20;47.50;;;;;;6150950;29;20085;-67
2022/02/16 13:58:49;;;;;;;0.38;0.35;;;19.20;47.60;;;;;;6151892;29;20022;-67
2022/02/16 14:02:12;;;;;;;0.75;0.45;;;19.20;47.60;;;;;;6151421;29;20296;-67
2022/02/16 14:05:13;;;;;;;1.38;0.40;;;19.20;47.60;;;;;;6168830;28;20082;-67
2022/02/16 14:08:14;;;;;;;0.40;0.40;;;19.20;47.60;;;;;;6175407;28;20023;-68
2022/02/16 14:11:21;;;;;;;0.45;0.30;;;19.20;47.50;;;;;;6174773;28;20472;-67
2022/02/16 14:14:22;;;;;;;0.68;0.30;;;19.20;47.60;;;;;;6174637;28;20061;-68
2022/02/16 14:17:22;;;;;;;0.60;0.38;;;19.20;47.60;;;;;;6175217;28;20031;-67
2022/02/16 14:20:23;;;;;;;0.40;0.35;;;19.20;47.60;;;;;;6175042;28;20474;-67
2022/02/16 14:23:24;;;;;;;0.68;0.30;;;19.20;47.60;;;;;;6174244;28;20553;-67
2022/02/16 14:26:24;;;;;;;0.98;0.50;;;19.20;47.60;;;;;;6173649;28;20088;-68
2022/02/16 14:29:25;;;;;;;0.32;0.25;;;19.20;47.60;;;;;;6174852;28;20500;-67
2022/02/16 14:32:26;;;;;;;0.38;0.28;;;19.20;47.60;;;;;;6170281;28;20031;-68
2022/02/16 14:35:27;;;;;;;0.57;0.30;;;19.20;47.60;;;;;;6150502;28;20026;-67
2022/02/16 14:38:27;;;;;;;0.85;0.50;;;19.20;47.60;;;;;;6150971;28;20039;-68
2022/02/16 14:41:28;;;;;;;0.30;0.30;;;19.20;47.60;;;;;;6150264;28;20062;-67
2022/02/16 14:44:29;;;;;;;0.45;0.40;;;19.20;47.70;;;;;;6150949;29;20027;-67
2022/02/16 14:47:31;;;;;;;2.67;0.30;;;19.20;47.70;;;;;;6150588;29;20124;-67
2022/02/16 14:50:33;;;;;;;0.20;0.20;;;19.20;47.70;;;;;;6150195;29;20027;-67
2022/02/16 14:53:34;;;;;;;0.40;0.30;;;19.20;47.70;;;;;;6150066;29;20031;-67
2022/02/16 14:56:35;;;;;;;1.00;0.40;;;19.20;47.70;;;;;;6150417;29;20050;-67
2022/02/16 14:59:38;;;;;;;0.70;0.40;;;19.20;47.70;;;;;;6150248;29;20035;-67
2022/02/16 15:02:40;;;;;;;0.30;0.30;;;19.20;47.70;;;;;;6148791;29;20141;-67
2022/02/16 15:05:41;;;;;;;0.45;0.30;;;19.20;47.70;;;;;;6150107;28;20055;-67
2022/02/16 15:08:41;;;;;;;0.60;0.30;;;19.20;47.70;;;;;;6173825;28;20038;-68
2022/02/16 15:11:42;;;;;;;0.40;0.40;;;19.20;47.70;;;;;;6174057;28;20061;-67
2022/02/16 15:14:43;;;;;;;0.30;0.30;;;19.20;47.70;;;;;;6173475;28;20393;-67
2022/02/16 15:17:44;;;;;;;0.40;0.40;;;19.20;47.70;;;;;;6173953;28;20617;-67
2022/02/16 15:20:45;;;;;;;0.30;0.30;;;19.20;47.70;;;;;;6173560;28;20382;-67
2022/02/16 15:23:45;;;;;;;0.30;0.30;;;19.20;47.70;;;;;;6173554;28;20114;-68
2022/02/16 15:26:46;;;;;;;0.30;0.20;;;19.20;47.70;;;;;;6173535;28;20035;-67
2022/02/16 15:29:46;;;;;;;0.47;0.35;;;19.20;47.70;;;;;;6173096;28;20037;-68
2022/02/16 15:32:47;;;;;;;0.30;0.22;;;19.20;47.70;;;;;;6165574;28;20039;-67
2022/02/16 15:35:48;;;;;;;0.45;0.40;;;19.20;47.70;;;;;;6149441;28;20459;-67
2022/02/16 15:38:49;;;;;;;0.50;0.35;;;19.20;47.70;;;;;;6149092;28;20418;-68
2022/02/16 15:41:50;;;;;;;0.55;0.30;;;19.20;47.70;;;;;;6149689;28;20080;-68
2022/02/16 15:44:50;;;;;;;0.30;0.30;;;19.20;47.70;;;;;;6149254;29;20483;-67
2022/02/16 15:47:51;;;;;;;0.30;0.30;;;19.20;47.70;;;;;;6149152;29;20097;-68